sensor_id;sensor_type;location;lat;lon;timestamp;P1;durP1;ratioP1;P2;durP2;ratioP2
83253;SDS011;73149;47.270;39.602;2023-11-19T00:00:50;9.98;;;4.85;;
83253;SDS011;73149;47.270;39.602;2023-11-19T00:03:16;12.25;;;6.15;;
83253;SDS011;73149;47.270;39.602;2023-11-19T00:05:43;10.70;;;4.85;;
83253;SDS011;73149;47.270;39.602;2023-11-19T00:08:10;9.23;;;5.07;;
83253;SDS011;73149;47.270;39.602;2023-11-19T00:10:35;11.23;;;5.40;;
83253;SDS011;73149;47.270;39.602;2023-11-19T00:13:01;11.05;;;6.50;;
83253;SDS011;73149;47.270;39.602;2023-11-19T00:15:32;12.38;;;6.32;;
83253;SDS011;73149;47.270;39.602;2023-11-19T00:17:58;10.43;;;5.15;;
83253;SDS011;73149;47.270;39.602;2023-11-19T00:20:24;11.40;;;4.78;;
83253;SDS011;73149;47.270;39.602;2023-11-19T00:22:50;13.82;;;6.78;;
83253;SDS011;73149;47.270;39.602;2023-11-19T00:25:17;11.10;;;5.43;;
83253;SDS011;73149;47.270;39.602;2023-11-19T00:27:43;11.38;;;6.10;;
83253;SDS011;73149;47.270;39.602;2023-11-19T00:30:12;11.65;;;6.25;;
83253;SDS011;73149;47.270;39.602;2023-11-19T00:32:39;11.90;;;5.07;;
83253;SDS011;73149;47.270;39.602;2023-11-19T00:35:06;14.80;;;7.40;;
83253;SDS011;73149;47.270;39.602;2023-11-19T00:37:32;13.65;;;7.15;;
83253;SDS011;73149;47.270;39.602;2023-11-19T00:39:58;10.60;;;5.80;;
83253;SDS011;73149;47.270;39.602;2023-11-19T00:42:24;12.65;;;5.60;;
83253;SDS011;73149;47.270;39.602;2023-11-19T00:44:50;12.50;;;5.68;;
83253;SDS011;73149;47.270;39.602;2023-11-19T00:47:17;11.65;;;5.57;;
83253;SDS011;73149;47.270;39.602;2023-11-19T00:49:46;10.65;;;4.95;;
83253;SDS011;73149;47.270;39.602;2023-11-19T00:52:15;11.68;;;5.65;;
83253;SDS011;73149;47.270;39.602;2023-11-19T00:54:42;10.02;;;5.05;;
83253;SDS011;73149;47.270;39.602;2023-11-19T00:57:08;11.13;;;5.68;;
83253;SDS011;73149;47.270;39.602;2023-11-19T00:59:34;10.70;;;5.07;;
83253;SDS011;73149;47.270;39.602;2023-11-19T01:02:00;12.45;;;6.57;;
83253;SDS011;73149;47.270;39.602;2023-11-19T01:04:38;14.50;;;6.97;;
83253;SDS011;73149;47.270;39.602;2023-11-19T01:07:04;10.75;;;5.05;;
83253;SDS011;73149;47.270;39.602;2023-11-19T01:09:37;17.90;;;9.48;;
83253;SDS011;73149;47.270;39.602;2023-11-19T01:12:04;16.52;;;7.85;;
83253;SDS011;73149;47.270;39.602;2023-11-19T01:14:30;9.23;;;5.03;;
83253;SDS011;73149;47.270;39.602;2023-11-19T01:16:56;13.95;;;6.60;;
83253;SDS011;73149;47.270;39.602;2023-11-19T01:19:22;10.48;;;5.07;;
83253;SDS011;73149;47.270;39.602;2023-11-19T01:21:50;13.90;;;6.80;;
83253;SDS011;73149;47.270;39.602;2023-11-19T01:24:16;8.98;;;4.13;;
83253;SDS011;73149;47.270;39.602;2023-11-19T01:26:45;10.07;;;4.55;;
83253;SDS011;73149;47.270;39.602;2023-11-19T01:29:12;12.40;;;5.93;;
83253;SDS011;73149;47.270;39.602;2023-11-19T01:31:45;12.18;;;5.90;;
83253;SDS011;73149;47.270;39.602;2023-11-19T01:34:16;11.65;;;4.95;;
83253;SDS011;73149;47.270;39.602;2023-11-19T01:36:42;12.25;;;5.22;;
83253;SDS011;73149;47.270;39.602;2023-11-19T01:39:08;10.60;;;5.35;;
83253;SDS011;73149;47.270;39.602;2023-11-19T01:41:37;11.70;;;5.80;;
83253;SDS011;73149;47.270;39.602;2023-11-19T01:44:06;11.80;;;6.10;;
83253;SDS011;73149;47.270;39.602;2023-11-19T01:46:32;12.35;;;5.70;;
83253;SDS011;73149;47.270;39.602;2023-11-19T01:48:58;9.98;;;5.60;;
83253;SDS011;73149;47.270;39.602;2023-11-19T01:51:25;11.93;;;6.68;;
83253;SDS011;73149;47.270;39.602;2023-11-19T01:53:51;9.50;;;4.93;;
83253;SDS011;73149;47.270;39.602;2023-11-19T01:56:17;9.55;;;4.80;;
83253;SDS011;73149;47.270;39.602;2023-11-19T01:58:45;10.05;;;4.82;;
83253;SDS011;73149;47.270;39.602;2023-11-19T02:01:14;10.95;;;5.55;;
83253;SDS011;73149;47.270;39.602;2023-11-19T02:03:40;11.52;;;5.65;;
83253;SDS011;73149;47.270;39.602;2023-11-19T02:06:06;10.13;;;5.00;;
83253;SDS011;73149;47.270;39.602;2023-11-19T02:08:33;12.00;;;6.40;;
83253;SDS011;73149;47.270;39.602;2023-11-19T02:10:59;10.30;;;4.47;;
83253;SDS011;73149;47.270;39.602;2023-11-19T02:13:25;10.10;;;4.47;;
83253;SDS011;73149;47.270;39.602;2023-11-19T02:15:52;10.63;;;5.18;;
83253;SDS011;73149;47.270;39.602;2023-11-19T02:18:18;11.05;;;5.28;;
83253;SDS011;73149;47.270;39.602;2023-11-19T02:20:57;11.30;;;5.70;;
83253;SDS011;73149;47.270;39.602;2023-11-19T02:23:26;9.65;;;4.72;;
83253;SDS011;73149;47.270;39.602;2023-11-19T02:28:35;8.85;;;4.43;;
83253;SDS011;73149;47.270;39.602;2023-11-19T02:31:02;8.65;;;4.45;;
83253;SDS011;73149;47.270;39.602;2023-11-19T02:33:30;9.30;;;4.38;;
83253;SDS011;73149;47.270;39.602;2023-11-19T02:35:56;10.82;;;5.03;;
83253;SDS011;73149;47.270;39.602;2023-11-19T02:38:22;9.43;;;4.78;;
83253;SDS011;73149;47.270;39.602;2023-11-19T02:40:48;9.52;;;4.78;;
83253;SDS011;73149;47.270;39.602;2023-11-19T02:43:14;9.82;;;4.88;;
83253;SDS011;73149;47.270;39.602;2023-11-19T02:45:40;9.13;;;4.10;;
83253;SDS011;73149;47.270;39.602;2023-11-19T02:48:07;10.30;;;4.88;;
83253;SDS011;73149;47.270;39.602;2023-11-19T02:50:34;10.52;;;5.53;;
83253;SDS011;73149;47.270;39.602;2023-11-19T02:52:59;7.97;;;4.03;;
83253;SDS011;73149;47.270;39.602;2023-11-19T02:55:26;7.22;;;3.53;;
83253;SDS011;73149;47.270;39.602;2023-11-19T02:57:55;9.20;;;4.40;;
83253;SDS011;73149;47.270;39.602;2023-11-19T03:00:24;10.13;;;5.07;;
83253;SDS011;73149;47.270;39.602;2023-11-19T03:02:57;9.95;;;4.88;;
83253;SDS011;73149;47.270;39.602;2023-11-19T03:05:24;8.50;;;3.63;;
83253;SDS011;73149;47.270;39.602;2023-11-19T03:07:51;9.15;;;4.60;;
83253;SDS011;73149;47.270;39.602;2023-11-19T03:10:17;8.50;;;4.38;;
83253;SDS011;73149;47.270;39.602;2023-11-19T03:12:44;7.97;;;3.50;;
83253;SDS011;73149;47.270;39.602;2023-11-19T03:15:13;7.28;;;3.40;;
83253;SDS011;73149;47.270;39.602;2023-11-19T03:17:40;6.82;;;3.33;;
83253;SDS011;73149;47.270;39.602;2023-11-19T03:20:07;8.80;;;3.78;;
83253;SDS011;73149;47.270;39.602;2023-11-19T03:22:38;7.50;;;3.85;;
83253;SDS011;73149;47.270;39.602;2023-11-19T03:25:04;7.10;;;3.40;;
83253;SDS011;73149;47.270;39.602;2023-11-19T03:27:36;5.88;;;2.85;;
83253;SDS011;73149;47.270;39.602;2023-11-19T03:30:07;6.90;;;3.70;;
83253;SDS011;73149;47.270;39.602;2023-11-19T03:32:37;7.80;;;2.90;;
83253;SDS011;73149;47.270;39.602;2023-11-19T03:35:04;7.80;;;4.05;;
83253;SDS011;73149;47.270;39.602;2023-11-19T03:37:32;7.93;;;3.53;;
83253;SDS011;73149;47.270;39.602;2023-11-19T03:39:59;6.32;;;3.55;;
83253;SDS011;73149;47.270;39.602;2023-11-19T03:42:26;5.78;;;2.78;;
83253;SDS011;73149;47.270;39.602;2023-11-19T03:44:52;4.85;;;2.30;;
83253;SDS011;73149;47.270;39.602;2023-11-19T03:47:19;4.30;;;2.03;;
83253;SDS011;73149;47.270;39.602;2023-11-19T03:49:49;3.88;;;1.70;;
83253;SDS011;73149;47.270;39.602;2023-11-19T03:52:15;5.28;;;2.20;;
83253;SDS011;73149;47.270;39.602;2023-11-19T03:54:42;7.57;;;3.58;;
83253;SDS011;73149;47.270;39.602;2023-11-19T03:57:08;8.43;;;3.72;;
83253;SDS011;73149;47.270;39.602;2023-11-19T03:59:37;6.80;;;2.47;;
83253;SDS011;73149;47.270;39.602;2023-11-19T04:02:04;6.85;;;2.53;;
83253;SDS011;73149;47.270;39.602;2023-11-19T04:04:30;7.80;;;3.35;;
83253;SDS011;73149;47.270;39.602;2023-11-19T04:06:56;6.75;;;2.85;;
83253;SDS011;73149;47.270;39.602;2023-11-19T04:09:22;7.57;;;3.45;;
83253;SDS011;73149;47.270;39.602;2023-11-19T04:11:48;5.80;;;2.60;;
83253;SDS011;73149;47.270;39.602;2023-11-19T04:14:14;7.60;;;3.58;;
83253;SDS011;73149;47.270;39.602;2023-11-19T04:16:40;4.90;;;2.50;;
83253;SDS011;73149;47.270;39.602;2023-11-19T04:19:06;7.57;;;3.83;;
83253;SDS011;73149;47.270;39.602;2023-11-19T04:21:33;8.27;;;3.75;;
83253;SDS011;73149;47.270;39.602;2023-11-19T04:23:58;7.60;;;3.50;;
83253;SDS011;73149;47.270;39.602;2023-11-19T04:26:24;6.20;;;3.03;;
83253;SDS011;73149;47.270;39.602;2023-11-19T04:28:50;6.53;;;3.03;;
83253;SDS011;73149;47.270;39.602;2023-11-19T04:31:19;7.63;;;3.13;;
83253;SDS011;73149;47.270;39.602;2023-11-19T04:33:45;8.63;;;4.05;;
83253;SDS011;73149;47.270;39.602;2023-11-19T04:36:11;7.53;;;3.33;;
83253;SDS011;73149;47.270;39.602;2023-11-19T04:38:37;6.28;;;3.03;;
83253;SDS011;73149;47.270;39.602;2023-11-19T04:41:06;6.70;;;3.17;;
83253;SDS011;73149;47.270;39.602;2023-11-19T04:43:32;6.75;;;3.08;;
83253;SDS011;73149;47.270;39.602;2023-11-19T04:45:58;6.22;;;2.97;;
83253;SDS011;73149;47.270;39.602;2023-11-19T04:48:24;7.45;;;3.45;;
83253;SDS011;73149;47.270;39.602;2023-11-19T04:50:50;8.57;;;2.95;;
83253;SDS011;73149;47.270;39.602;2023-11-19T04:53:17;7.28;;;3.35;;
83253;SDS011;73149;47.270;39.602;2023-11-19T04:55:43;8.80;;;3.80;;
83253;SDS011;73149;47.270;39.602;2023-11-19T04:58:10;7.05;;;3.17;;
83253;SDS011;73149;47.270;39.602;2023-11-19T05:00:36;9.35;;;3.80;;
83253;SDS011;73149;47.270;39.602;2023-11-19T05:03:01;8.52;;;3.45;;
83253;SDS011;73149;47.270;39.602;2023-11-19T05:05:28;6.65;;;3.40;;
83253;SDS011;73149;47.270;39.602;2023-11-19T05:07:54;9.43;;;3.90;;
83253;SDS011;73149;47.270;39.602;2023-11-19T05:10:20;7.50;;;3.83;;
83253;SDS011;73149;47.270;39.602;2023-11-19T05:12:46;7.13;;;3.33;;
83253;SDS011;73149;47.270;39.602;2023-11-19T05:15:12;9.13;;;3.83;;
83253;SDS011;73149;47.270;39.602;2023-11-19T05:17:38;10.15;;;5.47;;
83253;SDS011;73149;47.270;39.602;2023-11-19T05:20:04;7.57;;;3.38;;
83253;SDS011;73149;47.270;39.602;2023-11-19T05:22:41;7.78;;;3.05;;
83253;SDS011;73149;47.270;39.602;2023-11-19T05:25:08;5.47;;;2.60;;
83253;SDS011;73149;47.270;39.602;2023-11-19T05:27:36;8.18;;;4.38;;
83253;SDS011;73149;47.270;39.602;2023-11-19T05:30:03;9.82;;;4.03;;
83253;SDS011;73149;47.270;39.602;2023-11-19T05:32:32;10.48;;;4.40;;
83253;SDS011;73149;47.270;39.602;2023-11-19T05:34:59;11.00;;;4.15;;
83253;SDS011;73149;47.270;39.602;2023-11-19T05:37:24;9.35;;;4.32;;
83253;SDS011;73149;47.270;39.602;2023-11-19T05:39:50;7.43;;;4.05;;
83253;SDS011;73149;47.270;39.602;2023-11-19T05:42:17;9.35;;;4.78;;
83253;SDS011;73149;47.270;39.602;2023-11-19T05:44:43;10.57;;;5.25;;
83253;SDS011;73149;47.270;39.602;2023-11-19T05:47:09;12.30;;;4.95;;
83253;SDS011;73149;47.270;39.602;2023-11-19T05:49:35;10.45;;;5.15;;
83253;SDS011;73149;47.270;39.602;2023-11-19T05:52:01;10.88;;;5.28;;
83253;SDS011;73149;47.270;39.602;2023-11-19T05:54:28;8.20;;;4.30;;
83253;SDS011;73149;47.270;39.602;2023-11-19T05:56:54;13.23;;;5.65;;
83253;SDS011;73149;47.270;39.602;2023-11-19T05:59:20;11.63;;;6.57;;
83253;SDS011;73149;47.270;39.602;2023-11-19T06:01:48;14.38;;;5.40;;
83253;SDS011;73149;47.270;39.602;2023-11-19T06:04:14;15.70;;;6.18;;
83253;SDS011;73149;47.270;39.602;2023-11-19T06:06:41;10.68;;;5.50;;
83253;SDS011;73149;47.270;39.602;2023-11-19T06:09:07;12.48;;;6.47;;
83253;SDS011;73149;47.270;39.602;2023-11-19T06:11:33;15.25;;;6.57;;
83253;SDS011;73149;47.270;39.602;2023-11-19T06:14:01;11.23;;;6.00;;
83253;SDS011;73149;47.270;39.602;2023-11-19T06:16:28;10.85;;;4.82;;
83253;SDS011;73149;47.270;39.602;2023-11-19T06:18:54;11.95;;;5.22;;
83253;SDS011;73149;47.270;39.602;2023-11-19T06:21:20;11.23;;;5.82;;
83253;SDS011;73149;47.270;39.602;2023-11-19T06:23:46;12.27;;;5.95;;
83253;SDS011;73149;47.270;39.602;2023-11-19T06:26:12;10.52;;;5.32;;
83253;SDS011;73149;47.270;39.602;2023-11-19T06:28:40;12.02;;;5.05;;
83253;SDS011;73149;47.270;39.602;2023-11-19T06:31:06;11.52;;;6.25;;
83253;SDS011;73149;47.270;39.602;2023-11-19T06:33:32;14.15;;;8.18;;
83253;SDS011;73149;47.270;39.602;2023-11-19T06:35:59;16.70;;;6.97;;
83253;SDS011;73149;47.270;39.602;2023-11-19T06:38:25;12.88;;;7.07;;
83253;SDS011;73149;47.270;39.602;2023-11-19T06:40:50;10.38;;;5.18;;
83253;SDS011;73149;47.270;39.602;2023-11-19T06:43:16;11.93;;;6.47;;
83253;SDS011;73149;47.270;39.602;2023-11-19T06:45:43;12.73;;;6.35;;
83253;SDS011;73149;47.270;39.602;2023-11-19T06:48:09;12.77;;;7.28;;
83253;SDS011;73149;47.270;39.602;2023-11-19T06:50:35;12.13;;;6.50;;
83253;SDS011;73149;47.270;39.602;2023-11-19T06:53:01;14.98;;;7.85;;
83253;SDS011;73149;47.270;39.602;2023-11-19T06:55:27;13.82;;;6.50;;
83253;SDS011;73149;47.270;39.602;2023-11-19T06:57:53;16.25;;;7.35;;
83253;SDS011;73149;47.270;39.602;2023-11-19T07:00:19;14.85;;;8.30;;
83253;SDS011;73149;47.270;39.602;2023-11-19T07:02:45;10.38;;;4.78;;
83253;SDS011;73149;47.270;39.602;2023-11-19T07:05:11;9.27;;;5.50;;
83253;SDS011;73149;47.270;39.602;2023-11-19T07:07:38;7.10;;;3.90;;
83253;SDS011;73149;47.270;39.602;2023-11-19T07:10:05;15.30;;;7.78;;
83253;SDS011;73149;47.270;39.602;2023-11-19T07:12:34;13.52;;;7.30;;
83253;SDS011;73149;47.270;39.602;2023-11-19T07:15:01;14.80;;;7.63;;
83253;SDS011;73149;47.270;39.602;2023-11-19T07:17:29;12.85;;;7.10;;
83253;SDS011;73149;47.270;39.602;2023-11-19T07:19:55;10.35;;;5.43;;
83253;SDS011;73149;47.270;39.602;2023-11-19T07:22:24;12.27;;;5.85;;
83253;SDS011;73149;47.270;39.602;2023-11-19T07:24:51;11.25;;;6.28;;
83253;SDS011;73149;47.270;39.602;2023-11-19T07:27:18;12.75;;;6.80;;
83253;SDS011;73149;47.270;39.602;2023-11-19T07:29:44;10.88;;;5.18;;
83253;SDS011;73149;47.270;39.602;2023-11-19T07:32:11;8.38;;;3.72;;
83253;SDS011;73149;47.270;39.602;2023-11-19T07:34:38;15.45;;;7.60;;
83253;SDS011;73149;47.270;39.602;2023-11-19T07:37:05;13.35;;;6.85;;
83253;SDS011;73149;47.270;39.602;2023-11-19T07:39:31;10.18;;;5.70;;
83253;SDS011;73149;47.270;39.602;2023-11-19T07:41:57;15.65;;;6.10;;
83253;SDS011;73149;47.270;39.602;2023-11-19T07:44:24;12.45;;;6.32;;
83253;SDS011;73149;47.270;39.602;2023-11-19T07:46:50;14.18;;;7.47;;
83253;SDS011;73149;47.270;39.602;2023-11-19T07:49:16;17.77;;;9.82;;
83253;SDS011;73149;47.270;39.602;2023-11-19T07:51:41;12.57;;;5.78;;
83253;SDS011;73149;47.270;39.602;2023-11-19T07:54:07;10.02;;;5.22;;
83253;SDS011;73149;47.270;39.602;2023-11-19T07:56:33;11.23;;;5.88;;
83253;SDS011;73149;47.270;39.602;2023-11-19T07:59:02;12.75;;;6.43;;
83253;SDS011;73149;47.270;39.602;2023-11-19T08:01:28;12.70;;;6.68;;
83253;SDS011;73149;47.270;39.602;2023-11-19T08:03:54;9.68;;;4.95;;
83253;SDS011;73149;47.270;39.602;2023-11-19T08:06:20;12.63;;;7.03;;
83253;SDS011;73149;47.270;39.602;2023-11-19T08:08:46;9.57;;;5.00;;
83253;SDS011;73149;47.270;39.602;2023-11-19T08:11:13;11.13;;;5.95;;
83253;SDS011;73149;47.270;39.602;2023-11-19T08:13:40;9.43;;;4.88;;
83253;SDS011;73149;47.270;39.602;2023-11-19T08:16:07;13.55;;;6.05;;
83253;SDS011;73149;47.270;39.602;2023-11-19T08:18:33;10.90;;;4.65;;
83253;SDS011;73149;47.270;39.602;2023-11-19T08:20:58;12.45;;;6.10;;
83253;SDS011;73149;47.270;39.602;2023-11-19T08:23:26;12.35;;;6.25;;
83253;SDS011;73149;47.270;39.602;2023-11-19T08:25:53;14.45;;;7.20;;
83253;SDS011;73149;47.270;39.602;2023-11-19T08:28:19;11.80;;;5.60;;
83253;SDS011;73149;47.270;39.602;2023-11-19T08:30:45;9.68;;;4.88;;
83253;SDS011;73149;47.270;39.602;2023-11-19T08:33:11;11.27;;;5.32;;
83253;SDS011;73149;47.270;39.602;2023-11-19T08:35:37;9.77;;;4.30;;
83253;SDS011;73149;47.270;39.602;2023-11-19T08:38:03;13.00;;;5.93;;
83253;SDS011;73149;47.270;39.602;2023-11-19T08:40:29;12.05;;;5.80;;
83253;SDS011;73149;47.270;39.602;2023-11-19T08:42:55;13.15;;;6.65;;
83253;SDS011;73149;47.270;39.602;2023-11-19T08:45:21;12.45;;;5.65;;
83253;SDS011;73149;47.270;39.602;2023-11-19T08:47:47;12.40;;;5.97;;
83253;SDS011;73149;47.270;39.602;2023-11-19T08:50:13;14.95;;;6.65;;
83253;SDS011;73149;47.270;39.602;2023-11-19T08:52:40;11.95;;;5.88;;
83253;SDS011;73149;47.270;39.602;2023-11-19T08:55:06;12.48;;;6.68;;
83253;SDS011;73149;47.270;39.602;2023-11-19T08:57:35;11.93;;;6.00;;
83253;SDS011;73149;47.270;39.602;2023-11-19T09:00:01;11.38;;;5.40;;
83253;SDS011;73149;47.270;39.602;2023-11-19T09:02:29;12.23;;;5.38;;
83253;SDS011;73149;47.270;39.602;2023-11-19T09:04:55;12.77;;;5.13;;
83253;SDS011;73149;47.270;39.602;2023-11-19T09:07:21;12.93;;;6.22;;
83253;SDS011;73149;47.270;39.602;2023-11-19T09:09:47;9.95;;;4.90;;
83253;SDS011;73149;47.270;39.602;2023-11-19T09:12:13;11.02;;;5.65;;
83253;SDS011;73149;47.270;39.602;2023-11-19T09:14:39;12.75;;;6.03;;
83253;SDS011;73149;47.270;39.602;2023-11-19T09:17:05;11.05;;;5.22;;
83253;SDS011;73149;47.270;39.602;2023-11-19T09:19:32;10.30;;;5.13;;
83253;SDS011;73149;47.270;39.602;2023-11-19T09:21:58;11.18;;;5.75;;
83253;SDS011;73149;47.270;39.602;2023-11-19T09:24:23;15.60;;;5.65;;
83253;SDS011;73149;47.270;39.602;2023-11-19T09:26:49;10.80;;;5.68;;
83253;SDS011;73149;47.270;39.602;2023-11-19T09:29:15;9.73;;;4.70;;
83253;SDS011;73149;47.270;39.602;2023-11-19T09:31:41;12.38;;;5.93;;
83253;SDS011;73149;47.270;39.602;2023-11-19T09:34:07;9.30;;;4.32;;
83253;SDS011;73149;47.270;39.602;2023-11-19T09:36:33;11.23;;;6.68;;
83253;SDS011;73149;47.270;39.602;2023-11-19T09:38:59;15.20;;;7.72;;
83253;SDS011;73149;47.270;39.602;2023-11-19T09:41:29;14.57;;;7.90;;
83253;SDS011;73149;47.270;39.602;2023-11-19T09:43:56;13.10;;;7.32;;
83253;SDS011;73149;47.270;39.602;2023-11-19T09:46:22;13.65;;;6.45;;
83253;SDS011;73149;47.270;39.602;2023-11-19T09:48:49;11.43;;;5.65;;
83253;SDS011;73149;47.270;39.602;2023-11-19T09:51:21;10.80;;;4.70;;
83253;SDS011;73149;47.270;39.602;2023-11-19T09:53:50;9.63;;;4.70;;
83253;SDS011;73149;47.270;39.602;2023-11-19T09:56:16;12.82;;;5.93;;
83253;SDS011;73149;47.270;39.602;2023-11-19T09:58:43;15.00;;;8.40;;
83253;SDS011;73149;47.270;39.602;2023-11-19T10:01:09;9.45;;;4.72;;
83253;SDS011;73149;47.270;39.602;2023-11-19T10:03:38;12.57;;;6.28;;
83253;SDS011;73149;47.270;39.602;2023-11-19T10:06:08;12.90;;;6.63;;
83253;SDS011;73149;47.270;39.602;2023-11-19T10:08:38;10.32;;;5.18;;
83253;SDS011;73149;47.270;39.602;2023-11-19T10:13:31;11.48;;;5.47;;
83253;SDS011;73149;47.270;39.602;2023-11-19T10:15:57;11.15;;;5.82;;
83253;SDS011;73149;47.270;39.602;2023-11-19T10:18:26;17.40;;;8.48;;
83253;SDS011;73149;47.270;39.602;2023-11-19T10:20:52;10.55;;;5.72;;
83253;SDS011;73149;47.270;39.602;2023-11-19T10:23:20;14.32;;;7.03;;
83253;SDS011;73149;47.270;39.602;2023-11-19T10:25:46;12.95;;;5.90;;
83253;SDS011;73149;47.270;39.602;2023-11-19T10:28:14;15.38;;;6.50;;
83253;SDS011;73149;47.270;39.602;2023-11-19T10:30:41;12.73;;;6.00;;
83253;SDS011;73149;47.270;39.602;2023-11-19T10:33:08;10.23;;;5.50;;
83253;SDS011;73149;47.270;39.602;2023-11-19T10:35:52;15.00;;;8.02;;
83253;SDS011;73149;47.270;39.602;2023-11-19T10:38:20;11.10;;;6.07;;
83253;SDS011;73149;47.270;39.602;2023-11-19T10:43:20;12.15;;;6.50;;
83253;SDS011;73149;47.270;39.602;2023-11-19T10:45:50;11.65;;;6.25;;
83253;SDS011;73149;47.270;39.602;2023-11-19T10:48:16;11.73;;;5.80;;
83253;SDS011;73149;47.270;39.602;2023-11-19T10:50:43;9.52;;;4.32;;
83253;SDS011;73149;47.270;39.602;2023-11-19T10:53:11;11.43;;;6.00;;
83253;SDS011;73149;47.270;39.602;2023-11-19T10:58:08;10.63;;;6.07;;
83253;SDS011;73149;47.270;39.602;2023-11-19T11:03:25;11.18;;;5.72;;
83253;SDS011;73149;47.270;39.602;2023-11-19T11:05:56;11.50;;;6.25;;
83253;SDS011;73149;47.270;39.602;2023-11-19T11:08:23;11.30;;;5.82;;
83253;SDS011;73149;47.270;39.602;2023-11-19T11:10:53;11.80;;;6.07;;
83253;SDS011;73149;47.270;39.602;2023-11-19T11:13:22;11.32;;;6.22;;
83253;SDS011;73149;47.270;39.602;2023-11-19T11:15:49;11.73;;;5.75;;
83253;SDS011;73149;47.270;39.602;2023-11-19T11:18:16;8.85;;;4.32;;
83253;SDS011;73149;47.270;39.602;2023-11-19T11:20:46;11.93;;;6.15;;
83253;SDS011;73149;47.270;39.602;2023-11-19T11:39:39;11.52;;;6.47;;
83253;SDS011;73149;47.270;39.602;2023-11-19T11:45:02;12.40;;;6.13;;
83253;SDS011;73149;47.270;39.602;2023-11-19T11:50:09;12.07;;;6.22;;
83253;SDS011;73149;47.270;39.602;2023-11-19T11:57:50;11.27;;;6.05;;
83253;SDS011;73149;47.270;39.602;2023-11-19T12:00:22;9.15;;;4.97;;
83253;SDS011;73149;47.270;39.602;2023-11-19T12:02:54;11.23;;;5.25;;
83253;SDS011;73149;47.270;39.602;2023-11-19T12:05:30;8.10;;;4.28;;
83253;SDS011;73149;47.270;39.602;2023-11-19T12:08:00;9.18;;;4.43;;
83253;SDS011;73149;47.270;39.602;2023-11-19T12:10:31;11.82;;;6.95;;
83253;SDS011;73149;47.270;39.602;2023-11-19T12:12:58;9.98;;;5.38;;
83253;SDS011;73149;47.270;39.602;2023-11-19T12:15:25;12.10;;;5.70;;
83253;SDS011;73149;47.270;39.602;2023-11-19T12:17:55;11.25;;;6.80;;
83253;SDS011;73149;47.270;39.602;2023-11-19T12:20:22;10.60;;;5.90;;
83253;SDS011;73149;47.270;39.602;2023-11-19T12:22:52;7.57;;;4.05;;
83253;SDS011;73149;47.270;39.602;2023-11-19T12:25:19;8.20;;;4.30;;
83253;SDS011;73149;47.270;39.602;2023-11-19T12:27:46;9.32;;;4.80;;
83253;SDS011;73149;47.270;39.602;2023-11-19T12:30:22;10.57;;;5.68;;
83253;SDS011;73149;47.270;39.602;2023-11-19T12:32:49;11.85;;;6.07;;
83253;SDS011;73149;47.270;39.602;2023-11-19T12:35:16;9.68;;;4.97;;
83253;SDS011;73149;47.270;39.602;2023-11-19T12:37:42;7.82;;;3.90;;
83253;SDS011;73149;47.270;39.602;2023-11-19T12:40:13;10.45;;;5.15;;
83253;SDS011;73149;47.270;39.602;2023-11-19T12:42:53;12.15;;;5.30;;
83253;SDS011;73149;47.270;39.602;2023-11-19T12:45:20;9.35;;;5.18;;
83253;SDS011;73149;47.270;39.602;2023-11-19T12:47:48;10.20;;;5.60;;
83253;SDS011;73149;47.270;39.602;2023-11-19T12:50:17;12.85;;;6.38;;
83253;SDS011;73149;47.270;39.602;2023-11-19T12:52:56;8.35;;;4.38;;
83253;SDS011;73149;47.270;39.602;2023-11-19T12:55:26;10.05;;;5.00;;
83253;SDS011;73149;47.270;39.602;2023-11-19T12:57:57;11.38;;;4.03;;
83253;SDS011;73149;47.270;39.602;2023-11-19T13:00:25;10.38;;;3.60;;
83253;SDS011;73149;47.270;39.602;2023-11-19T13:02:52;7.35;;;3.55;;
83253;SDS011;73149;47.270;39.602;2023-11-19T13:05:20;9.15;;;3.88;;
83253;SDS011;73149;47.270;39.602;2023-11-19T13:07:46;8.27;;;3.92;;
83253;SDS011;73149;47.270;39.602;2023-11-19T13:10:12;9.13;;;4.88;;
83253;SDS011;73149;47.270;39.602;2023-11-19T13:12:38;8.27;;;4.60;;
83253;SDS011;73149;47.270;39.602;2023-11-19T13:15:05;7.75;;;4.15;;
83253;SDS011;73149;47.270;39.602;2023-11-19T13:17:31;7.53;;;3.55;;
83253;SDS011;73149;47.270;39.602;2023-11-19T13:19:57;7.53;;;3.40;;
83253;SDS011;73149;47.270;39.602;2023-11-19T13:22:23;6.10;;;3.28;;
83253;SDS011;73149;47.270;39.602;2023-11-19T13:24:49;10.55;;;4.82;;
83253;SDS011;73149;47.270;39.602;2023-11-19T13:27:15;12.75;;;4.32;;
83253;SDS011;73149;47.270;39.602;2023-11-19T13:29:41;9.20;;;4.90;;
83253;SDS011;73149;47.270;39.602;2023-11-19T13:32:07;6.05;;;2.97;;
83253;SDS011;73149;47.270;39.602;2023-11-19T13:34:33;10.43;;;3.53;;
83253;SDS011;73149;47.270;39.602;2023-11-19T13:36:59;7.40;;;3.90;;
83253;SDS011;73149;47.270;39.602;2023-11-19T13:39:25;6.80;;;2.95;;
83253;SDS011;73149;47.270;39.602;2023-11-19T13:41:52;9.45;;;3.17;;
83253;SDS011;73149;47.270;39.602;2023-11-19T13:44:17;9.43;;;3.63;;
83253;SDS011;73149;47.270;39.602;2023-11-19T13:46:46;8.55;;;3.42;;
83253;SDS011;73149;47.270;39.602;2023-11-19T13:49:12;7.00;;;2.85;;
83253;SDS011;73149;47.270;39.602;2023-11-19T13:51:40;7.80;;;3.75;;
83253;SDS011;73149;47.270;39.602;2023-11-19T13:54:05;8.52;;;3.42;;
83253;SDS011;73149;47.270;39.602;2023-11-19T13:56:31;7.43;;;3.25;;
83253;SDS011;73149;47.270;39.602;2023-11-19T13:58:57;7.07;;;2.97;;
83253;SDS011;73149;47.270;39.602;2023-11-19T14:01:23;6.45;;;3.17;;
83253;SDS011;73149;47.270;39.602;2023-11-19T14:03:51;5.80;;;2.40;;
83253;SDS011;73149;47.270;39.602;2023-11-19T14:06:18;8.85;;;4.25;;
83253;SDS011;73149;47.270;39.602;2023-11-19T14:08:45;5.65;;;2.58;;
83253;SDS011;73149;47.270;39.602;2023-11-19T14:11:11;6.00;;;3.00;;
83253;SDS011;73149;47.270;39.602;2023-11-19T14:13:38;7.38;;;3.20;;
83253;SDS011;73149;47.270;39.602;2023-11-19T14:16:04;6.05;;;2.97;;
83253;SDS011;73149;47.270;39.602;2023-11-19T14:18:33;5.28;;;2.65;;
83253;SDS011;73149;47.270;39.602;2023-11-19T14:21:00;6.05;;;2.83;;
83253;SDS011;73149;47.270;39.602;2023-11-19T14:23:26;7.72;;;3.92;;
83253;SDS011;73149;47.270;39.602;2023-11-19T14:25:52;5.97;;;2.85;;
83253;SDS011;73149;47.270;39.602;2023-11-19T14:28:18;5.18;;;2.40;;
83253;SDS011;73149;47.270;39.602;2023-11-19T14:30:44;5.45;;;2.20;;
83253;SDS011;73149;47.270;39.602;2023-11-19T14:33:11;9.18;;;3.03;;
83253;SDS011;73149;47.270;39.602;2023-11-19T14:35:37;4.63;;;2.15;;
83253;SDS011;73149;47.270;39.602;2023-11-19T14:38:03;6.22;;;3.03;;
83253;SDS011;73149;47.270;39.602;2023-11-19T14:40:32;6.70;;;2.83;;
83253;SDS011;73149;47.270;39.602;2023-11-19T14:42:58;5.43;;;2.70;;
83253;SDS011;73149;47.270;39.602;2023-11-19T14:45:24;4.18;;;1.95;;
83253;SDS011;73149;47.270;39.602;2023-11-19T14:47:50;5.88;;;2.65;;
83253;SDS011;73149;47.270;39.602;2023-11-19T14:50:16;6.03;;;2.53;;
83253;SDS011;73149;47.270;39.602;2023-11-19T14:52:41;4.05;;;1.88;;
83253;SDS011;73149;47.270;39.602;2023-11-19T14:55:08;7.68;;;3.22;;
83253;SDS011;73149;47.270;39.602;2023-11-19T14:57:35;8.90;;;3.92;;
83253;SDS011;73149;47.270;39.602;2023-11-19T15:00:01;6.93;;;2.47;;
83253;SDS011;73149;47.270;39.602;2023-11-19T15:02:34;7.45;;;3.85;;
83253;SDS011;73149;47.270;39.602;2023-11-19T15:05:00;6.28;;;3.00;;
83253;SDS011;73149;47.270;39.602;2023-11-19T15:07:25;7.03;;;3.25;;